Time;durP1;ratioP1;P1;durP2;ratioP2;P2;SDS_P1;SDS_P2;PMS_P1;PMS_P2;Temp;Humidity;BMP_temperature;BMP_pressure;BME280_temperature;BME280_humidity;BME280_pressure;Samples;Min_cycle;Max_cycle;Signal;HPM_P1;HPM_P2
2022/02/19 00:02:18;;;;;;;;;;;4.70;99.90;;;;;;5055331;28;19908;-80
2022/02/19 00:04:43;;;;;;;;;;;4.60;99.90;;;;;;5055222;28;19916;-81
2022/02/19 00:07:09;;;;;;;;;;;4.60;99.90;;;;;;5055120;28;19909;-80
2022/02/19 00:09:34;;;;;;;;;;;4.50;99.90;;;;;;5037253;28;19947;-79
2022/02/19 00:12:00;;;;;;;;;;;4.60;99.90;;;;;;5055211;28;19999;-79
2022/02/19 00:14:25;;;;;;;;;;;4.50;99.90;;;;;;5037149;28;20273;-82
2022/02/19 00:16:51;;;;;;;;;;;4.50;99.90;;;;;;5054812;28;19951;-81
2022/02/19 00:19:19;;;;;;;;;;;4.50;99.90;;;;;;5036981;28;20383;-80
2022/02/19 00:21:44;;;;;;;;;;;4.50;99.90;;;;;;5055050;28;20396;-81
2022/02/19 00:24:10;;;;;;;;;;;4.50;99.90;;;;;;5036977;28;19909;-80
2022/02/19 00:26:35;;;;;;;;;;;4.60;99.90;;;;;;5054195;28;19908;-80
2022/02/19 00:29:01;;;;;;;;;;;4.60;99.90;;;;;;5054711;28;20353;-82
2022/02/19 00:31:27;;;;;;;;;;;4.50;99.90;;;;;;5054750;28;19909;-79
2022/02/19 00:33:53;;;;;;;;;;;4.50;99.90;;;;;;5054652;28;20396;-82
2022/02/19 00:36:19;;;;;;;;;;;4.50;99.90;;;;;;5054698;28;20365;-82
2022/02/19 00:38:45;;;;;;;;;;;4.50;99.90;;;;;;5054600;28;19954;-81
2022/02/19 00:41:10;;;;;;;;;;;4.40;99.90;;;;;;5054698;28;20007;-82
2022/02/19 00:43:36;;;;;;;;;;;4.40;99.90;;;;;;5054458;28;19909;-81
2022/02/19 00:46:02;;;;;;;;;;;4.40;99.90;;;;;;5054435;28;19928;-81
2022/02/19 00:48:27;;;;;;;;;;;4.30;99.90;;;;;;5054529;28;19913;-80
2022/02/19 00:50:53;;;;;;;;;;;4.30;99.90;;;;;;5054316;28;20328;-80
2022/02/19 00:53:19;;;;;;;;;;;4.30;99.90;;;;;;5054794;28;19909;-80
2022/02/19 00:55:44;;;;;;;;;;;4.20;99.90;;;;;;5054379;28;19909;-82
2022/02/19 00:58:10;;;;;;;;;;;4.20;99.90;;;;;;5054332;28;19956;-80
2022/02/19 01:00:36;;;;;;;;;;;4.10;99.90;;;;;;5036201;28;20444;-80
2022/02/19 01:03:01;;;;;;;;;;;4.10;99.90;;;;;;5054470;28;19912;-79
2022/02/19 01:05:27;;;;;;;;;;;4.10;99.90;;;;;;5054081;28;19955;-81
2022/02/19 01:07:52;;;;;;;;;;;4.20;99.90;;;;;;5036038;28;20373;-81
2022/02/19 01:10:18;;;;;;;;;;;4.10;99.90;;;;;;5053953;28;20321;-80
2022/02/19 01:12:44;;;;;;;;;;;4.20;99.90;;;;;;5036027;28;19909;-81
2022/02/19 01:15:11;;;;;;;;;;;4.30;99.90;;;;;;5054026;28;20281;-79
2022/02/19 01:17:37;;;;;;;;;;;4.30;99.90;;;;;;5035779;28;19970;-82
2022/02/19 01:20:04;;;;;;;;;;;4.30;99.90;;;;;;5053849;28;19909;-80
2022/02/19 01:22:29;;;;;;;;;;;4.30;99.90;;;;;;5035812;28;19992;-81
2022/02/19 01:24:55;;;;;;;;;;;4.30;99.90;;;;;;5053721;28;19998;-82
2022/02/19 01:27:21;;;;;;;;;;;4.30;99.90;;;;;;5053629;28;20344;-81
2022/02/19 01:29:46;;;;;;;;;;;4.30;99.90;;;;;;5035738;28;19916;-81
2022/02/19 01:32:12;;;;;;;;;;;4.20;99.90;;;;;;5035788;28;19909;-81
2022/02/19 01:34:38;;;;;;;;;;;4.10;99.90;;;;;;5053613;28;19984;-81
2022/02/19 01:37:04;;;;;;;;;;;4.20;99.90;;;;;;5052834;28;19940;-80
2022/02/19 01:39:29;;;;;;;;;;;4.20;99.90;;;;;;5053581;28;20336;-80
2022/02/19 01:41:55;;;;;;;;;;;4.20;99.90;;;;;;5053528;28;19909;-81
2022/02/19 01:44:32;;;;;;;;;;;4.20;99.90;;;;;;5053820;28;19909;-81
2022/02/19 01:46:58;;;;;;;;;;;4.20;99.90;;;;;;5053521;28;20004;-80
2022/02/19 01:49:23;;;;;;;;;;;4.10;99.90;;;;;;5053516;28;20007;-81
2022/02/19 01:51:49;;;;;;;;;;;4.10;99.90;;;;;;5053533;28;20292;-82
2022/02/19 01:54:14;;;;;;;;;;;4.20;99.90;;;;;;5053327;28;19991;-81
2022/02/19 01:56:40;;;;;;;;;;;4.10;99.90;;;;;;5053676;28;19909;-81
2022/02/19 01:59:07;;;;;;;;;;;4.00;99.90;;;;;;5053349;28;19938;-81
2022/02/19 02:01:33;;;;;;;;;;;4.00;99.90;;;;;;5053614;28;20007;-82
2022/02/19 02:03:59;;;;;;;;;;;4.00;99.90;;;;;;5053270;28;20013;-81
2022/02/19 02:06:25;;;;;;;;;;;4.00;99.90;;;;;;5053700;28;20265;-78
2022/02/19 02:08:51;;;;;;;;;;;4.00;99.90;;;;;;5053374;28;19913;-82
2022/02/19 02:11:16;;;;;;;;;;;4.00;99.90;;;;;;5053285;28;19915;-80
2022/02/19 02:13:42;;;;;;;;;;;4.00;99.90;;;;;;5053227;28;20272;-81
2022/02/19 02:16:08;;;;;;;;;;;4.10;99.90;;;;;;5053480;28;19916;-80
2022/02/19 02:18:33;;;;;;;;;;;4.00;99.90;;;;;;5035009;28;19919;-81
2022/02/19 02:20:59;;;;;;;;;;;4.00;99.90;;;;;;5053099;28;19955;-81
2022/02/19 02:23:25;;;;;;;;;;;4.00;99.90;;;;;;5053229;28;19995;-81
2022/02/19 02:25:52;;;;;;;;;;;4.00;99.90;;;;;;5035294;28;20430;-80
2022/02/19 02:28:19;;;;;;;;;;;3.90;99.90;;;;;;5035138;28;19959;-81
2022/02/19 02:30:45;;;;;;;;;;;3.90;99.90;;;;;;5053060;28;20384;-81
2022/02/19 02:33:12;;;;;;;;;;;3.90;99.90;;;;;;5053082;28;20088;-81
2022/02/19 02:35:37;;;;;;;;;;;3.80;99.90;;;;;;5053016;28;19909;-80
2022/02/19 02:38:03;;;;;;;;;;;3.90;99.90;;;;;;5052972;28;19916;-81
2022/02/19 02:40:29;;;;;;;;;;;3.90;99.90;;;;;;5052999;28;19915;-82
2022/02/19 02:42:55;;;;;;;;;;;3.90;99.90;;;;;;5052951;28;19948;-80
2022/02/19 02:45:21;;;;;;;;;;;3.80;99.90;;;;;;5035071;28;19994;-81
2022/02/19 02:47:46;;;;;;;;;;;3.70;99.90;;;;;;5052933;28;20398;-81
2022/02/19 02:50:12;;;;;;;;;;;3.70;99.90;;;;;;5056543;28;19909;-82
2022/02/19 02:52:39;;;;;;;;;;;3.70;99.90;;;;;;5056951;28;20285;-79
2022/02/19 02:55:05;;;;;;;;;;;3.70;99.90;;;;;;5056555;28;19908;-79
2022/02/19 02:57:31;;;;;;;;;;;3.70;99.90;;;;;;5038619;28;19909;-82
2022/02/19 02:59:57;;;;;;;;;;;3.70;99.90;;;;;;5056460;28;20427;-81
2022/02/19 03:02:22;;;;;;;;;;;3.80;99.90;;;;;;5056621;28;20238;-82
2022/02/19 03:04:48;;;;;;;;;;;3.70;99.90;;;;;;5056374;28;20453;-80
2022/02/19 03:07:13;;;;;;;;;;;3.80;99.90;;;;;;5056384;28;19909;-79
2022/02/19 03:09:39;;;;;;;;;;;3.80;99.90;;;;;;5056302;28;19999;-82
2022/02/19 03:12:05;;;;;;;;;;;3.90;99.90;;;;;;5056215;28;19909;-81
2022/02/19 03:14:30;;;;;;;;;;;3.80;99.90;;;;;;5056715;28;19908;-81
2022/02/19 03:16:56;;;;;;;;;;;3.90;99.90;;;;;;5055901;28;19928;-83
2022/02/19 03:19:21;;;;;;;;;;;3.90;99.90;;;;;;5056092;28;20364;-81
2022/02/19 03:21:47;;;;;;;;;;;3.90;99.90;;;;;;5056075;28;19909;-82
2022/02/19 03:24:13;;;;;;;;;;;3.80;99.90;;;;;;5038094;28;19992;-82
2022/02/19 03:26:38;;;;;;;;;;;3.80;99.90;;;;;;5055964;28;19909;-80
2022/02/19 03:29:04;;;;;;;;;;;3.80;99.90;;;;;;5055841;28;19913;-82
2022/02/19 03:31:30;;;;;;;;;;;3.80;99.90;;;;;;5055862;28;19915;-80
2022/02/19 03:33:56;;;;;;;;;;;3.70;99.90;;;;;;5037944;28;19998;-80
2022/02/19 03:36:21;;;;;;;;;;;3.70;99.90;;;;;;5055758;28;20000;-80
2022/02/19 03:38:47;;;;;;;;;;;3.70;99.90;;;;;;5055808;28;20300;-81
2022/02/19 03:41:12;;;;;;;;;;;3.60;99.90;;;;;;5055812;28;19909;-80
2022/02/19 03:43:38;;;;;;;;;;;3.60;99.90;;;;;;5055705;28;19962;-82
2022/02/19 03:46:04;;;;;;;;;;;3.50;99.90;;;;;;5037703;28;20364;-80
2022/02/19 03:48:29;;;;;;;;;;;3.50;99.90;;;;;;5055868;28;20323;-81
2022/02/19 03:50:55;;;;;;;;;;;3.50;99.90;;;;;;5055809;28;20004;-82
2022/02/19 03:53:20;;;;;;;;;;;3.50;99.90;;;;;;5055592;28;19916;-80
2022/02/19 03:55:46;;;;;;;;;;;3.40;99.90;;;;;;5055415;28;19909;-81
2022/02/19 03:58:11;;;;;;;;;;;3.50;99.90;;;;;;5055349;28;20373;-80
2022/02/19 04:00:37;;;;;;;;;;;3.60;99.90;;;;;;5054535;28;19955;-82
2022/02/19 04:03:03;;;;;;;;;;;3.70;99.90;;;;;;5055233;28;19909;-80
2022/02/19 04:05:28;;;;;;;;;;;3.60;99.90;;;;;;5037304;28;19971;-80
2022/02/19 04:07:54;;;;;;;;;;;3.60;99.90;;;;;;5055101;28;19913;-81
2022/02/19 04:10:19;;;;;;;;;;;3.50;99.90;;;;;;5055111;28;19909;-80
2022/02/19 04:12:45;;;;;;;;;;;3.40;99.90;;;;;;5055398;28;20381;-79
2022/02/19 04:15:11;;;;;;;;;;;3.40;99.90;;;;;;5055336;28;20377;-80
2022/02/19 04:17:38;;;;;;;;;;;3.30;99.90;;;;;;5054814;28;19959;-80
2022/02/19 04:20:04;;;;;;;;;;;3.40;99.90;;;;;;5054978;28;20380;-80
2022/02/19 04:22:30;;;;;;;;;;;3.30;99.90;;;;;;5054901;28;19909;-81
2022/02/19 04:24:55;;;;;;;;;;;3.30;99.90;;;;;;5054788;28;19963;-82
2022/02/19 04:27:21;;;;;;;;;;;3.40;99.90;;;;;;5036739;28;19915;-81
2022/02/19 04:29:47;;;;;;;;;;;3.30;99.90;;;;;;5055021;28;19916;-81
2022/02/19 04:32:12;;;;;;;;;;;3.30;99.90;;;;;;5054615;28;19937;-80
2022/02/19 04:34:38;;;;;;;;;;;3.30;99.90;;;;;;5054660;28;19920;-80
2022/02/19 04:37:04;;;;;;;;;;;3.20;99.90;;;;;;5054590;28;20430;-81
2022/02/19 04:39:30;;;;;;;;;;;3.40;99.90;;;;;;5054965;28;19955;-80
2022/02/19 04:41:56;;;;;;;;;;;3.30;99.90;;;;;;5054499;28;19908;-81
2022/02/19 04:44:21;;;;;;;;;;;3.20;99.90;;;;;;5036497;28;19913;-79
2022/02/19 04:46:47;;;;;;;;;;;3.30;99.90;;;;;;5054524;28;19959;-81
2022/02/19 04:49:12;;;;;;;;;;;3.40;99.90;;;;;;5036353;28;19920;-80
2022/02/19 04:51:38;;;;;;;;;;;3.40;99.90;;;;;;5054326;28;19916;-81
2022/02/19 04:54:04;;;;;;;;;;;3.40;99.90;;;;;;5054196;28;19909;-80
2022/02/19 04:56:31;;;;;;;;;;;3.50;99.90;;;;;;5054233;28;20346;-80
2022/02/19 04:58:56;;;;;;;;;;;3.50;99.90;;;;;;5054187;28;19909;-80
2022/02/19 05:01:22;;;;;;;;;;;3.50;99.90;;;;;;5054131;28;19908;-80
2022/02/19 05:03:48;;;;;;;;;;;3.40;99.90;;;;;;5054269;28;19995;-81
2022/02/19 05:06:13;;;;;;;;;;;3.40;99.90;;;;;;5054076;28;19943;-80
2022/02/19 05:08:40;;;;;;;;;;;3.40;99.90;;;;;;5054060;28;20404;-82
2022/02/19 05:11:05;;;;;;;;;;;3.40;99.90;;;;;;5053692;28;19969;-80
2022/02/19 05:13:31;;;;;;;;;;;3.40;99.90;;;;;;5053837;28;19916;-80
2022/02/19 05:15:56;;;;;;;;;;;3.40;99.90;;;;;;5053806;28;20389;-80
2022/02/19 05:18:22;;;;;;;;;;;3.50;99.90;;;;;;5035731;28;19913;-82
2022/02/19 05:20:48;;;;;;;;;;;3.50;99.90;;;;;;5035868;28;19955;-81
2022/02/19 05:23:13;;;;;;;;;;;3.40;99.90;;;;;;5053742;28;19987;-81
2022/02/19 05:25:40;;;;;;;;;;;3.40;99.90;;;;;;5053915;28;20265;-81
2022/02/19 05:28:09;;;;;;;;;;;3.40;99.90;;;;;;5053907;28;19913;-82
2022/02/19 05:30:35;;;;;;;;;;;3.60;99.90;;;;;;5053685;28;20377;-80
2022/02/19 05:33:01;;;;;;;;;;;3.60;99.90;;;;;;5053716;28;19947;-82
2022/02/19 05:35:26;;;;;;;;;;;3.60;99.90;;;;;;5053668;28;19909;-81
2022/02/19 05:37:52;;;;;;;;;;;3.60;99.90;;;;;;5053529;28;19912;-81
2022/02/19 05:40:17;;;;;;;;;;;3.60;99.90;;;;;;5053920;28;20448;-80
2022/02/19 05:42:43;;;;;;;;;;;3.60;99.90;;;;;;5053496;28;19909;-81
2022/02/19 05:45:09;;;;;;;;;;;3.60;99.90;;;;;;5053474;28;19909;-82
2022/02/19 05:47:34;;;;;;;;;;;3.60;99.90;;;;;;5053387;28;19951;-80
2022/02/19 05:50:00;;;;;;;;;;;3.50;99.90;;;;;;5053800;28;19909;-80
2022/02/19 05:52:26;;;;;;;;;;;3.50;99.90;;;;;;5035864;28;20379;-81
2022/02/19 05:54:54;;;;;;;;;;;3.40;99.90;;;;;;5053341;28;19913;-79
2022/02/19 05:57:22;;;;;;;;;;;3.30;99.90;;;;;;5053324;28;19909;-81
2022/02/19 05:59:48;;;;;;;;;;;3.40;99.90;;;;;;5035420;28;19913;-80
2022/02/19 06:02:14;;;;;;;;;;;3.40;99.90;;;;;;5053401;28;20285;-81
2022/02/19 06:04:39;;;;;;;;;;;3.40;99.90;;;;;;5053375;28;19992;-80
2022/02/19 06:07:05;;;;;;;;;;;3.40;99.90;;;;;;5035324;28;20008;-81
2022/02/19 06:09:31;;;;;;;;;;;3.50;99.90;;;;;;5053164;28;19952;-79
2022/02/19 06:11:56;;;;;;;;;;;3.50;99.90;;;;;;5053335;28;19962;-81
2022/02/19 06:14:22;;;;;;;;;;;3.50;99.90;;;;;;5053165;28;19913;-82
2022/02/19 06:16:49;;;;;;;;;;;3.50;99.90;;;;;;5052984;28;19955;-81
2022/02/19 06:19:14;;;;;;;;;;;3.50;99.90;;;;;;5035221;28;19959;-81
2022/02/19 06:21:40;;;;;;;;;;;3.50;99.90;;;;;;5053266;28;20314;-80
2022/02/19 06:24:06;;;;;;;;;;;3.50;99.90;;;;;;5055397;28;19946;-82
2022/02/19 06:26:31;;;;;;;;;;;3.50;99.90;;;;;;5057135;28;19962;-82
2022/02/19 06:28:57;;;;;;;;;;;3.50;99.90;;;;;;5057350;28;20377;-82
2022/02/19 06:31:22;;;;;;;;;;;3.50;99.90;;;;;;5057080;28;19909;-81
2022/02/19 06:33:48;;;;;;;;;;;3.40;99.90;;;;;;5056964;28;19915;-79
2022/02/19 06:36:13;;;;;;;;;;;3.50;99.90;;;;;;5057142;28;19988;-82
2022/02/19 06:38:39;;;;;;;;;;;3.50;99.90;;;;;;5038952;28;20007;-82
2022/02/19 06:41:05;;;;;;;;;;;3.40;99.90;;;;;;5056830;28;19948;-79
2022/02/19 06:43:31;;;;;;;;;;;3.40;99.90;;;;;;5038949;28;19952;-82
2022/02/19 06:45:57;;;;;;;;;;;3.50;99.90;;;;;;5056835;28;20323;-81
2022/02/19 06:48:22;;;;;;;;;;;3.50;99.90;;;;;;5056661;28;20369;-80
2022/02/19 06:50:48;;;;;;;;;;;3.50;99.90;;;;;;5038829;28;19909;-82
2022/02/19 06:53:13;;;;;;;;;;;3.40;99.90;;;;;;5056647;28;19909;-80
2022/02/19 06:55:39;;;;;;;;;;;3.40;99.90;;;;;;5056613;28;19916;-81
2022/02/19 06:58:04;;;;;;;;;;;3.40;99.90;;;;;;5056588;28;19908;-82
2022/02/19 07:00:30;;;;;;;;;;;3.40;99.90;;;;;;5056549;28;19932;-79
2022/02/19 07:02:56;;;;;;;;;;;3.40;99.90;;;;;;5056555;28;19952;-80
2022/02/19 07:05:21;;;;;;;;;;;3.40;99.90;;;;;;5056453;28;19913;-80
2022/02/19 07:07:47;;;;;;;;;;;3.40;99.90;;;;;;5056466;28;20362;-82
2022/02/19 07:10:13;;;;;;;;;;;3.50;99.90;;;;;;5056384;28;19931;-80
2022/02/19 07:12:38;;;;;;;;;;;3.60;99.90;;;;;;5038405;28;20396;-82
2022/02/19 07:15:09;;;;;;;;;;;3.60;99.90;;;;;;5038377;28;19908;-81
2022/02/19 07:17:47;;;;;;;;;;;3.70;99.90;;;;;;5056118;28;19927;-81
2022/02/19 07:20:13;;;;;;;;;;;3.70;99.90;;;;;;5056245;28;20335;-81
2022/02/19 07:22:39;;;;;;;;;;;3.80;99.90;;;;;;5056626;28;19994;-81
2022/02/19 07:25:05;;;;;;;;;;;3.70;99.90;;;;;;5038272;28;20316;-82
2022/02/19 07:27:37;;;;;;;;;;;3.80;99.90;;;;;;5056198;28;19913;-80
2022/02/19 07:30:03;;;;;;;;;;;3.80;99.90;;;;;;5038131;28;19909;-80
2022/02/19 07:32:29;;;;;;;;;;;3.80;99.90;;;;;;5056040;28;19999;-82
2022/02/19 07:34:55;;;;;;;;;;;3.90;99.90;;;;;;5037998;28;20018;-81
2022/02/19 07:37:20;;;;;;;;;;;4.10;99.90;;;;;;5055955;28;19909;-82
2022/02/19 07:39:46;;;;;;;;;;;4.10;99.90;;;;;;5055895;28;19940;-82
2022/02/19 07:42:11;;;;;;;;;;;4.30;99.90;;;;;;5037963;28;19995;-82
2022/02/19 07:44:37;;;;;;;;;;;4.40;99.90;;;;;;5055898;28;19915;-81
2022/02/19 07:47:02;;;;;;;;;;;4.60;99.90;;;;;;5055708;28;20279;-82
2022/02/19 08:00:25;;;;;;;;;;;6.30;99.90;;;;;;5055361;28;19962;-81
2022/02/19 08:02:51;;;;;;;;;;;6.70;99.90;;;;;;5038052;28;19909;-81
2022/02/19 08:05:16;;;;;;;;;;;7.00;99.90;;;;;;5037446;28;20276;-81
2022/02/19 08:07:42;;;;;;;;;;;7.20;99.90;;;;;;5037226;28;20003;-82
2022/02/19 08:10:08;;;;;;;;;;;7.30;99.90;;;;;;5037281;28;19908;-80
2022/02/19 08:12:33;;;;;;;;;;;7.40;99.90;;;;;;5055307;28;19950;-80
2022/02/19 08:14:59;;;;;;;;;;;8.00;99.90;;;;;;5055255;28;19909;-82
2022/02/19 08:17:25;;;;;;;;;;;8.40;99.90;;;;;;5037056;28;19920;-81
2022/02/19 08:19:51;;;;;;;;;;;8.10;99.90;;;;;;5055234;28;19954;-81
2022/02/19 08:22:17;;;;;;;;;;;8.90;99.90;;;;;;5037131;28;19909;-82
2022/02/19 08:24:43;;;;;;;;;;;8.80;99.90;;;;;;5054931;28;20388;-81
2022/02/19 08:27:08;;;;;;;;;;;9.40;99.90;;;;;;5055017;28;19916;-81
2022/02/19 08:29:34;;;;;;;;;;;9.30;99.90;;;;;;5054837;28;19956;-82
2022/02/19 08:31:59;;;;;;;;;;;9.70;99.90;;;;;;5055148;28;20277;-81
2022/02/19 08:34:25;;;;;;;;;;;9.40;99.90;;;;;;5054561;28;19912;-81
2022/02/19 08:36:56;;;;;;;;;;;9.90;99.90;;;;;;5036870;28;19908;-81
2022/02/19 08:39:21;;;;;;;;;;;10.50;99.50;;;;;;5054822;28;19909;-81
2022/02/19 08:41:47;;;;;;;;;;;10.50;99.30;;;;;;5054719;28;19909;-81
2022/02/19 08:44:13;;;;;;;;;;;10.70;98.50;;;;;;5037276;28;19908;-81
2022/02/19 08:46:38;;;;;;;;;;;11.10;97.70;;;;;;5036160;28;19912;-83
2022/02/19 08:49:04;;;;;;;;;;;11.00;97.00;;;;;;5036528;28;19913;-82
2022/02/19 08:51:29;;;;;;;;;;;11.40;96.50;;;;;;5054920;28;19916;-81
2022/02/19 08:53:55;;;;;;;;;;;11.50;96.80;;;;;;5054420;28;19973;-81
2022/02/19 08:56:20;;;;;;;;;;;12.10;95.20;;;;;;5054937;28;19908;-82
2022/02/19 08:58:46;;;;;;;;;;;13.10;94.40;;;;;;5054648;28;19909;-81
2022/02/19 09:01:12;;;;;;;;;;;12.40;94.00;;;;;;5054589;28;19919;-81
2022/02/19 09:03:38;;;;;;;;;;;12.80;93.90;;;;;;5036395;28;20277;-81
2022/02/19 09:06:04;;;;;;;;;;;14.00;92.10;;;;;;5054231;28;19916;-81
2022/02/19 09:08:29;;;;;;;;;;;14.80;90.90;;;;;;5054316;28;19917;-82
2022/02/19 09:10:55;;;;;;;;;;;15.80;89.50;;;;;;5054180;28;19991;-81
2022/02/19 09:13:20;;;;;;;;;;;16.20;85.80;;;;;;5054116;28;19909;-81
2022/02/19 09:15:48;;;;;;;;;;;15.50;84.40;;;;;;5054144;28;19936;-81
2022/02/19 09:18:13;;;;;;;;;;;16.10;83.30;;;;;;5054132;28;19920;-81
2022/02/19 09:20:39;;;;;;;;;;;16.60;83.00;;;;;;5035952;28;19909;-82
2022/02/19 09:23:05;;;;;;;;;;;15.80;82.00;;;;;;5053970;28;20392;-81
2022/02/19 09:25:30;;;;;;;;;;;15.50;81.20;;;;;;5053930;28;20320;-80
2022/02/19 09:27:56;;;;;;;;;;;16.90;79.10;;;;;;5053854;28;19913;-82
2022/02/19 09:30:22;;;;;;;;;;;16.90;77.70;;;;;;5035945;28;19920;-81
2022/02/19 09:32:49;;;;;;;;;;;16.50;77.00;;;;;;5053803;28;20277;-82
2022/02/19 09:35:15;;;;;;;;;;;16.10;76.50;;;;;;5054078;28;19916;-81
2022/02/19 09:37:41;;;;;;;;;;;16.70;75.80;;;;;;5053801;28;19909;-81
2022/02/19 09:40:11;;;;;;;;;;;16.80;77.80;;;;;;5053702;28;20277;-82
2022/02/19 09:42:37;;;;;;;;;;;17.10;75.30;;;;;;5053977;28;19909;-81
2022/02/19 09:45:03;;;;;;;;;;;17.00;74.20;;;;;;5035811;28;20372;-82
2022/02/19 09:47:29;;;;;;;;;;;18.50;72.70;;;;;;5053707;28;19915;-81
2022/02/19 09:49:56;;;;;;;;;;;17.70;72.00;;;;;;5053753;28;19909;-81
2022/02/19 09:52:23;;;;;;;;;;;17.20;72.50;;;;;;5023019;28;19924;-81
2022/02/19 09:54:49;;;;;;;;;;;17.10;74.00;;;;;;5035887;28;19909;-81
2022/02/19 09:57:16;;;;;;;;;;;17.50;73.10;;;;;;5053032;28;19963;-81
2022/02/19 09:59:42;;;;;;;;;;;18.80;73.30;;;;;;5052152;28;19963;-82
2022/02/19 10:02:08;;;;;;;;;;;18.00;72.20;;;;;;5043624;28;20281;-82
2022/02/19 10:04:35;;;;;;;;;;;18.30;72.20;;;;;;5016258;28;19943;-82
2022/02/19 10:07:26;;;;;;;;;;;18.90;70.90;;;;;;5033909;28;19916;-82
2022/02/19 10:09:54;;;;;;;;;;;18.00;70.50;;;;;;5029763;28;19963;-82
2022/02/19 10:12:20;;;;;;;;;;;17.50;70.90;;;;;;5032260;28;19910;-81
2022/02/19 10:14:45;;;;;;;;;;;18.20;70.50;;;;;;5033942;28;20365;-81
2022/02/19 10:17:17;;;;;;;;;;;17.80;69.40;;;;;;5044802;28;20395;-81
2022/02/19 10:19:50;;;;;;;;;;;18.50;67.80;;;;;;5053188;28;19952;-82
2022/02/19 10:22:28;;;;;;;;;;;18.50;67.50;;;;;;5052593;28;19912;-82
2022/02/19 10:24:54;;;;;;;;;;;18.00;68.60;;;;;;5053508;28;19909;-81
2022/02/19 10:27:20;;;;;;;;;;;17.60;69.20;;;;;;5035843;28;19908;-82
2022/02/19 10:29:47;;;;;;;;;;;17.00;69.60;;;;;;5053392;28;19920;-81
2022/02/19 10:32:14;;;;;;;;;;;17.40;69.00;;;;;;5069928;28;19908;-82
2022/02/19 10:34:53;;;;;;;;;;;17.20;69.50;;;;;;5073353;28;20285;-82
2022/02/19 10:37:22;;;;;;;;;;;16.60;71.20;;;;;;5073818;28;19909;-81
2022/02/19 10:39:48;;;;;;;;;;;16.80;69.40;;;;;;5055501;28;19909;-81
2022/02/19 10:42:13;;;;;;;;;;;16.90;70.10;;;;;;5043945;28;19982;-81
2022/02/19 10:44:39;;;;;;;;;;;16.80;69.90;;;;;;5035696;28;19916;-81
2022/02/19 10:47:25;;;;;;;;;;;17.00;69.40;;;;;;5053134;28;19909;-80
2022/02/19 10:50:07;;;;;;;;;;;16.50;69.90;;;;;;5053404;28;19952;-80
2022/02/19 10:52:34;;;;;;;;;;;16.80;69.70;;;;;;5043528;28;19978;-80
2022/02/19 10:55:07;;;;;;;;;;;16.70;70.90;;;;;;5073085;28;19909;-81
2022/02/19 10:57:37;;;;;;;;;;;16.80;70.20;;;;;;5072542;28;20010;-81
2022/02/19 11:00:10;;;;;;;;;;;17.00;71.10;;;;;;5073389;28;19915;-81
2022/02/19 11:02:36;;;;;;;;;;;17.60;70.10;;;;;;5040708;28;20003;-81
2022/02/19 11:05:02;;;;;;;;;;;17.70;70.60;;;;;;5053235;28;20639;-81
2022/02/19 11:07:28;;;;;;;;;;;18.40;67.40;;;;;;5053348;28;19951;-81
2022/02/19 11:09:54;;;;;;;;;;;18.90;69.10;;;;;;5054935;28;20311;-81
2022/02/19 11:12:19;;;;;;;;;;;19.30;66.50;;;;;;5055704;28;19975;-80
2022/02/19 11:14:45;;;;;;;;;;;18.60;68.80;;;;;;5056780;28;19947;-81
2022/02/19 11:17:12;;;;;;;;;;;18.30;69.00;;;;;;5056326;28;20340;-80
2022/02/19 11:19:39;;;;;;;;;;;17.40;70.10;;;;;;5055993;28;20266;-81
2022/02/19 11:22:06;;;;;;;;;;;17.90;69.40;;;;;;5061640;28;19908;-79
2022/02/19 11:24:32;;;;;;;;;;;18.00;69.40;;;;;;5076668;28;20307;-80
2022/02/19 11:27:00;;;;;;;;;;;18.40;69.00;;;;;;5076365;28;19916;-79
2022/02/19 11:29:26;;;;;;;;;;;18.20;66.70;;;;;;5076243;28;19918;-80
2022/02/19 11:31:52;;;;;;;;;;;19.10;66.90;;;;;;5072876;28;19991;-80
2022/02/19 11:34:19;;;;;;;;;;;20.50;65.70;;;;;;5058366;28;20322;-79
2022/02/19 11:36:44;;;;;;;;;;;20.60;63.30;;;;;;5075959;28;19916;-80
2022/02/19 11:39:10;;;;;;;;;;;20.70;62.40;;;;;;5057835;28;19994;-80
2022/02/19 11:41:40;;;;;;;;;;;22.60;61.20;;;;;;5069471;28;20546;-80
2022/02/19 11:44:14;;;;;;;;;;;21.30;58.20;;;;;;5055362;28;19909;-80
2022/02/19 11:46:40;;;;;;;;;;;21.80;59.00;;;;;;5055766;28;19909;-80
2022/02/19 11:49:22;;;;;;;;;;;22.50;58.70;;;;;;5037797;28;19935;-80
2022/02/19 11:52:05;;;;;;;;;;;22.50;56.90;;;;;;5055689;28;19909;-79
2022/02/19 11:54:31;;;;;;;;;;;23.60;56.20;;;;;;5054947;28;20166;-80
2022/02/19 11:56:57;;;;;;;;;;;20.20;58.20;;;;;;5053741;28;20051;-80
2022/02/19 11:59:39;;;;;;;;;;;22.80;57.90;;;;;;5053801;28;19916;-80
2022/02/19 12:02:12;;;;;;;;;;;22.20;58.70;;;;;;5053878;28;20003;-79
2022/02/19 12:04:38;;;;;;;;;;;23.30;55.90;;;;;;5053839;28;19959;-80
2022/02/19 12:07:06;;;;;;;;;;;23.50;55.00;;;;;;5053697;28;19940;-79
2022/02/19 12:09:32;;;;;;;;;;;22.60;56.70;;;;;;5054192;28;20052;-80
2022/02/19 12:12:04;;;;;;;;;;;21.90;57.40;;;;;;5055165;28;20336;-79
2022/02/19 12:14:51;;;;;;;;;;;21.30;56.80;;;;;;5055198;28;19909;-79
2022/02/19 12:17:17;;;;;;;;;;;21.50;56.60;;;;;;5055081;28;19944;-79
2022/02/19 12:19:52;;;;;;;;;;;22.40;54.90;;;;;;5055160;28;19916;-80
2022/02/19 12:22:47;;;;;;;;;;;21.10;53.90;;;;;;5054238;28;19913;-80
2022/02/19 12:25:12;;;;;;;;;;;21.80;54.30;;;;;;5037638;28;19928;-79
2022/02/19 12:27:39;;;;;;;;;;;20.10;55.30;;;;;;5054931;28;19913;-79
2022/02/19 12:30:19;;;;;;;;;;;20.10;56.60;;;;;;5054970;28;19909;-79
2022/02/19 12:32:45;;;;;;;;;;;19.70;56.80;;;;;;5055280;28;19909;-79
2022/02/19 12:35:11;;;;;;;;;;;19.10;57.50;;;;;;5054757;28;19913;-79
2022/02/19 12:37:37;;;;;;;;;;;18.90;58.50;;;;;;5055087;28;20383;-80
2022/02/19 12:40:03;;;;;;;;;;;20.20;57.20;;;;;;5054729;28;19916;-79
2022/02/19 12:42:30;;;;;;;;;;;22.20;54.50;;;;;;5036793;28;19975;-79
2022/02/19 12:45:02;;;;;;;;;;;19.90;55.50;;;;;;5054628;28;19950;-80
2022/02/19 12:47:28;;;;;;;;;;;20.00;55.80;;;;;;5054793;28;19916;-80
2022/02/19 12:49:53;;;;;;;;;;;18.30;57.50;;;;;;5054626;28;20376;-79
2022/02/19 12:52:20;;;;;;;;;;;19.30;58.60;;;;;;5054632;28;19959;-79
2022/02/19 12:54:46;;;;;;;;;;;19.20;58.20;;;;;;5054430;28;19954;-79
2022/02/19 12:57:13;;;;;;;;;;;18.00;60.20;;;;;;5054366;28;20087;-79
2022/02/19 12:59:39;;;;;;;;;;;19.70;60.00;;;;;;5054384;28;19909;-80
2022/02/19 13:02:06;;;;;;;;;;;19.20;57.80;;;;;;5054336;28;19916;-79
2022/02/19 13:04:33;;;;;;;;;;;19.10;60.60;;;;;;5054322;28;19909;-79
2022/02/19 13:06:58;;;;;;;;;;;20.20;57.00;;;;;;5054276;28;19909;-80
2022/02/19 13:09:25;;;;;;;;;;;21.20;56.30;;;;;;5054123;28;20399;-80
2022/02/19 13:11:54;;;;;;;;;;;19.60;58.50;;;;;;5054166;28;19909;-80
2022/02/19 13:14:21;;;;;;;;;;;20.90;56.40;;;;;;5054684;28;20426;-80
2022/02/19 13:17:08;;;;;;;;;;;21.20;56.50;;;;;;5053857;28;19920;-80
2022/02/19 13:19:35;;;;;;;;;;;19.40;57.00;;;;;;5054150;28;19991;-79
2022/02/19 13:22:08;;;;;;;;;;;19.60;57.40;;;;;;5054085;28;19976;-78
2022/02/19 13:24:37;;;;;;;;;;;17.60;60.50;;;;;;5053202;28;20140;-79
2022/02/19 13:27:08;;;;;;;;;;;16.80;63.00;;;;;;5053947;28;19991;-79
2022/02/19 13:29:34;;;;;;;;;;;17.10;64.50;;;;;;5053875;28;20331;-79
2022/02/19 13:32:01;;;;;;;;;;;16.90;63.10;;;;;;5053702;28;19909;-79
2022/02/19 13:34:27;;;;;;;;;;;16.40;65.10;;;;;;5053921;28;20004;-77
2022/02/19 13:36:52;;;;;;;;;;;16.10;66.60;;;;;;5053782;28;20389;-78
2022/02/19 13:39:20;;;;;;;;;;;15.10;68.30;;;;;;5054185;28;19909;-79
2022/02/19 13:41:52;;;;;;;;;;;14.60;70.40;;;;;;5035824;28;20369;-77
2022/02/19 13:44:18;;;;;;;;;;;14.20;72.00;;;;;;5053722;28;19908;-79
2022/02/19 13:46:44;;;;;;;;;;;14.20;73.00;;;;;;5035766;28;19916;-79
2022/02/19 13:49:09;;;;;;;;;;;13.90;73.10;;;;;;5053685;28;19956;-79
2022/02/19 13:51:35;;;;;;;;;;;13.80;74.80;;;;;;5053566;28;19962;-79
2022/02/19 13:54:21;;;;;;;;;;;13.80;75.00;;;;;;5053477;28;19916;-79
2022/02/19 13:56:47;;;;;;;;;;;13.50;76.70;;;;;;5035386;28;19909;-80
2022/02/19 13:59:19;;;;;;;;;;;13.60;78.40;;;;;;5053524;28;20471;-78
2022/02/19 14:01:46;;;;;;;;;;;15.30;77.00;;;;;;5053535;28;19994;-79
2022/02/19 14:04:31;;;;;;;;;;;15.60;74.10;;;;;;5053539;28;19959;-78
2022/02/19 14:07:13;;;;;;;;;;;14.80;74.90;;;;;;5053728;28;19948;-78
2022/02/19 14:09:40;;;;;;;;;;;15.20;73.10;;;;;;5053377;28;19913;-79
2022/02/19 14:12:06;;;;;;;;;;;16.20;69.80;;;;;;5053371;28;19909;-79
2022/02/19 14:14:35;;;;;;;;;;;15.50;70.70;;;;;;5053271;28;19916;-78
2022/02/19 14:17:09;;;;;;;;;;;14.70;72.30;;;;;;5031976;28;20389;-79
2022/02/19 14:19:35;;;;;;;;;;;14.70;74.30;;;;;;5033590;28;19949;-79
2022/02/19 14:22:11;;;;;;;;;;;14.20;75.50;;;;;;5033456;28;19956;-79
2022/02/19 14:24:57;;;;;;;;;;;14.00;76.60;;;;;;5033316;28;19909;-77
2022/02/19 14:27:23;;;;;;;;;;;14.30;76.60;;;;;;5032922;28;19913;-78
2022/02/19 14:29:48;;;;;;;;;;;14.00;78.60;;;;;;5033537;28;19913;-78
2022/02/19 14:32:16;;;;;;;;;;;14.10;77.80;;;;;;5033389;28;19909;-78
2022/02/19 14:34:41;;;;;;;;;;;13.30;77.60;;;;;;5033281;28;19913;-78